sensor_id;sensor_type;location;lat;lon;timestamp;P1;durP1;ratioP1;P2;durP2;ratioP2
53010;SDS011;42803;55.762;38.084;2023-06-14T00:01:08;14.93;;;7.60;;
53010;SDS011;42803;55.762;38.084;2023-06-14T00:03:37;14.25;;;7.18;;
53010;SDS011;42803;55.762;38.084;2023-06-14T00:06:08;14.73;;;7.60;;
53010;SDS011;42803;55.762;38.084;2023-06-14T00:08:39;13.35;;;7.72;;
53010;SDS011;42803;55.762;38.084;2023-06-14T00:11:08;18.27;;;8.60;;
53010;SDS011;42803;55.762;38.084;2023-06-14T00:13:38;25.08;;;10.38;;
53010;SDS011;42803;55.762;38.084;2023-06-14T00:16:08;20.95;;;9.30;;
53010;SDS011;42803;55.762;38.084;2023-06-14T00:18:37;21.40;;;9.75;;
53010;SDS011;42803;55.762;38.084;2023-06-14T00:21:07;21.35;;;10.52;;
53010;SDS011;42803;55.762;38.084;2023-06-14T00:23:37;19.27;;;10.25;;
53010;SDS011;42803;55.762;38.084;2023-06-14T00:26:06;22.48;;;10.32;;
53010;SDS011;42803;55.762;38.084;2023-06-14T00:28:37;26.45;;;12.52;;
53010;SDS011;42803;55.762;38.084;2023-06-14T00:31:09;35.08;;;13.65;;
53010;SDS011;42803;55.762;38.084;2023-06-14T00:33:38;24.77;;;13.85;;
53010;SDS011;42803;55.762;38.084;2023-06-14T00:36:08;33.45;;;16.05;;
53010;SDS011;42803;55.762;38.084;2023-06-14T00:38:37;46.58;;;24.17;;
53010;SDS011;42803;55.762;38.084;2023-06-14T00:41:08;54.38;;;24.67;;
53010;SDS011;42803;55.762;38.084;2023-06-14T00:43:38;47.75;;;23.77;;
53010;SDS011;42803;55.762;38.084;2023-06-14T00:46:07;47.15;;;22.38;;
53010;SDS011;42803;55.762;38.084;2023-06-14T00:48:37;40.90;;;18.60;;
53010;SDS011;42803;55.762;38.084;2023-06-14T00:51:09;39.10;;;18.83;;
53010;SDS011;42803;55.762;38.084;2023-06-14T00:53:39;41.83;;;19.05;;
53010;SDS011;42803;55.762;38.084;2023-06-14T00:56:13;38.67;;;17.63;;
53010;SDS011;42803;55.762;38.084;2023-06-14T00:58:42;25.45;;;12.80;;
53010;SDS011;42803;55.762;38.084;2023-06-14T01:01:12;15.27;;;8.40;;
53010;SDS011;42803;55.762;38.084;2023-06-14T01:03:41;15.95;;;8.40;;
53010;SDS011;42803;55.762;38.084;2023-06-14T01:06:15;17.55;;;7.28;;
53010;SDS011;42803;55.762;38.084;2023-06-14T01:09:01;14.07;;;7.22;;
53010;SDS011;42803;55.762;38.084;2023-06-14T01:11:38;13.10;;;5.93;;
53010;SDS011;42803;55.762;38.084;2023-06-14T01:14:16;12.00;;;6.70;;
53010;SDS011;42803;55.762;38.084;2023-06-14T01:16:46;14.65;;;6.43;;
53010;SDS011;42803;55.762;38.084;2023-06-14T01:19:21;9.13;;;5.25;;
53010;SDS011;42803;55.762;38.084;2023-06-14T01:21:54;10.52;;;5.30;;
53010;SDS011;42803;55.762;38.084;2023-06-14T01:24:26;13.27;;;5.28;;
53010;SDS011;42803;55.762;38.084;2023-06-14T01:27:00;9.35;;;4.53;;
53010;SDS011;42803;55.762;38.084;2023-06-14T01:29:30;12.15;;;5.47;;
53010;SDS011;42803;55.762;38.084;2023-06-14T01:32:00;12.13;;;5.10;;
53010;SDS011;42803;55.762;38.084;2023-06-14T01:34:31;5.97;;;4.03;;
53010;SDS011;42803;55.762;38.084;2023-06-14T01:37:02;9.60;;;4.72;;
53010;SDS011;42803;55.762;38.084;2023-06-14T01:39:33;7.85;;;4.47;;
53010;SDS011;42803;55.762;38.084;2023-06-14T01:42:03;5.80;;;3.90;;
53010;SDS011;42803;55.762;38.084;2023-06-14T01:44:35;6.82;;;3.63;;
53010;SDS011;42803;55.762;38.084;2023-06-14T01:47:04;7.25;;;3.90;;
53010;SDS011;42803;55.762;38.084;2023-06-14T01:49:34;6.25;;;3.33;;
53010;SDS011;42803;55.762;38.084;2023-06-14T01:52:03;6.00;;;3.60;;
53010;SDS011;42803;55.762;38.084;2023-06-14T01:54:34;9.75;;;4.50;;
53010;SDS011;42803;55.762;38.084;2023-06-14T01:57:09;6.75;;;3.97;;
53010;SDS011;42803;55.762;38.084;2023-06-14T01:59:38;7.18;;;4.45;;
53010;SDS011;42803;55.762;38.084;2023-06-14T02:02:08;7.85;;;3.90;;
53010;SDS011;42803;55.762;38.084;2023-06-14T02:04:38;5.80;;;3.80;;
53010;SDS011;42803;55.762;38.084;2023-06-14T02:07:07;10.68;;;4.15;;
53010;SDS011;42803;55.762;38.084;2023-06-14T02:09:37;6.90;;;3.67;;
53010;SDS011;42803;55.762;38.084;2023-06-14T02:12:07;5.00;;;3.47;;
53010;SDS011;42803;55.762;38.084;2023-06-14T02:14:37;10.45;;;4.00;;
53010;SDS011;42803;55.762;38.084;2023-06-14T02:17:06;5.88;;;3.40;;
53010;SDS011;42803;55.762;38.084;2023-06-14T02:19:36;8.88;;;3.88;;
53010;SDS011;42803;55.762;38.084;2023-06-14T02:22:05;5.80;;;3.30;;
53010;SDS011;42803;55.762;38.084;2023-06-14T02:24:34;5.68;;;3.45;;
53010;SDS011;42803;55.762;38.084;2023-06-14T02:27:08;7.25;;;3.83;;
53010;SDS011;42803;55.762;38.084;2023-06-14T02:29:38;6.13;;;3.92;;
53010;SDS011;42803;55.762;38.084;2023-06-14T02:32:08;6.40;;;3.92;;
53010;SDS011;42803;55.762;38.084;2023-06-14T02:34:39;9.73;;;3.58;;
53010;SDS011;42803;55.762;38.084;2023-06-14T02:37:08;9.10;;;4.15;;
53010;SDS011;42803;55.762;38.084;2023-06-14T02:39:38;6.57;;;3.92;;
53010;SDS011;42803;55.762;38.084;2023-06-14T02:42:08;7.28;;;4.18;;
53010;SDS011;42803;55.762;38.084;2023-06-14T02:44:38;9.05;;;3.95;;
53010;SDS011;42803;55.762;38.084;2023-06-14T02:47:07;8.85;;;3.90;;
53010;SDS011;42803;55.762;38.084;2023-06-14T02:49:36;4.65;;;3.30;;
53010;SDS011;42803;55.762;38.084;2023-06-14T02:52:05;10.10;;;4.40;;
53010;SDS011;42803;55.762;38.084;2023-06-14T02:54:36;6.70;;;3.75;;
53010;SDS011;42803;55.762;38.084;2023-06-14T02:57:05;10.75;;;3.92;;
53010;SDS011;42803;55.762;38.084;2023-06-14T02:59:37;6.15;;;3.95;;
53010;SDS011;42803;55.762;38.084;2023-06-14T03:02:06;11.82;;;3.78;;
53010;SDS011;42803;55.762;38.084;2023-06-14T03:04:36;5.30;;;4.18;;
53010;SDS011;42803;55.762;38.084;2023-06-14T03:07:13;10.30;;;4.00;;
53010;SDS011;42803;55.762;38.084;2023-06-14T03:09:50;6.10;;;4.15;;
53010;SDS011;42803;55.762;38.084;2023-06-14T03:12:20;6.78;;;4.47;;
53010;SDS011;42803;55.762;38.084;2023-06-14T03:14:52;8.40;;;4.30;;
53010;SDS011;42803;55.762;38.084;2023-06-14T03:17:25;12.02;;;4.28;;
53010;SDS011;42803;55.762;38.084;2023-06-14T03:19:59;12.27;;;5.72;;
53010;SDS011;42803;55.762;38.084;2023-06-14T03:22:31;10.93;;;4.45;;
53010;SDS011;42803;55.762;38.084;2023-06-14T03:25:01;10.00;;;4.82;;
53010;SDS011;42803;55.762;38.084;2023-06-14T03:27:35;10.20;;;4.60;;
53010;SDS011;42803;55.762;38.084;2023-06-14T03:30:07;9.32;;;4.25;;
53010;SDS011;42803;55.762;38.084;2023-06-14T03:32:38;6.70;;;4.07;;
53010;SDS011;42803;55.762;38.084;2023-06-14T03:35:08;9.10;;;4.65;;
53010;SDS011;42803;55.762;38.084;2023-06-14T03:37:45;11.38;;;3.97;;
53010;SDS011;42803;55.762;38.084;2023-06-14T03:40:18;8.13;;;4.00;;
53010;SDS011;42803;55.762;38.084;2023-06-14T03:42:53;7.75;;;3.97;;
53010;SDS011;42803;55.762;38.084;2023-06-14T03:45:24;6.30;;;3.80;;
53010;SDS011;42803;55.762;38.084;2023-06-14T03:47:54;4.85;;;3.58;;
53010;SDS011;42803;55.762;38.084;2023-06-14T03:50:24;7.78;;;4.38;;
53010;SDS011;42803;55.762;38.084;2023-06-14T03:52:55;6.85;;;3.47;;
53010;SDS011;42803;55.762;38.084;2023-06-14T03:55:24;5.55;;;3.42;;
53010;SDS011;42803;55.762;38.084;2023-06-14T03:57:59;5.05;;;3.00;;
53010;SDS011;42803;55.762;38.084;2023-06-14T04:03:18;6.00;;;3.42;;
53010;SDS011;42803;55.762;38.084;2023-06-14T04:05:47;7.13;;;3.42;;
53010;SDS011;42803;55.762;38.084;2023-06-14T04:08:18;9.15;;;3.17;;
53010;SDS011;42803;55.762;38.084;2023-06-14T04:10:50;8.60;;;3.92;;
53010;SDS011;42803;55.762;38.084;2023-06-14T04:13:20;8.00;;;3.33;;
53010;SDS011;42803;55.762;38.084;2023-06-14T04:15:50;7.28;;;3.28;;
53010;SDS011;42803;55.762;38.084;2023-06-14T04:18:25;6.72;;;2.97;;
53010;SDS011;42803;55.762;38.084;2023-06-14T04:20:55;7.30;;;3.30;;
53010;SDS011;42803;55.762;38.084;2023-06-14T04:23:25;6.28;;;3.67;;
53010;SDS011;42803;55.762;38.084;2023-06-14T04:25:55;5.53;;;3.13;;
53010;SDS011;42803;55.762;38.084;2023-06-14T04:28:29;5.50;;;2.90;;
53010;SDS011;42803;55.762;38.084;2023-06-14T04:31:02;7.63;;;3.25;;
53010;SDS011;42803;55.762;38.084;2023-06-14T04:33:33;7.07;;;3.20;;
53010;SDS011;42803;55.762;38.084;2023-06-14T04:36:13;6.80;;;2.95;;
53010;SDS011;42803;55.762;38.084;2023-06-14T04:38:47;6.20;;;3.30;;
53010;SDS011;42803;55.762;38.084;2023-06-14T04:41:16;7.63;;;3.00;;
53010;SDS011;42803;55.762;38.084;2023-06-14T04:43:46;5.38;;;2.70;;
53010;SDS011;42803;55.762;38.084;2023-06-14T04:46:18;6.60;;;3.03;;
53010;SDS011;42803;55.762;38.084;2023-06-14T04:48:47;10.15;;;3.10;;
53010;SDS011;42803;55.762;38.084;2023-06-14T04:51:17;3.90;;;2.47;;
53010;SDS011;42803;55.762;38.084;2023-06-14T04:53:48;8.07;;;3.05;;
53010;SDS011;42803;55.762;38.084;2023-06-14T04:56:17;4.22;;;2.85;;
53010;SDS011;42803;55.762;38.084;2023-06-14T04:58:48;4.63;;;3.40;;
53010;SDS011;42803;55.762;38.084;2023-06-14T05:01:20;5.78;;;2.70;;
53010;SDS011;42803;55.762;38.084;2023-06-14T05:03:50;5.72;;;2.65;;
53010;SDS011;42803;55.762;38.084;2023-06-14T05:06:20;8.02;;;3.05;;
53010;SDS011;42803;55.762;38.084;2023-06-14T05:08:49;4.57;;;2.67;;
53010;SDS011;42803;55.762;38.084;2023-06-14T05:11:19;6.30;;;3.30;;
53010;SDS011;42803;55.762;38.084;2023-06-14T05:13:51;4.93;;;2.85;;
53010;SDS011;42803;55.762;38.084;2023-06-14T05:16:22;6.20;;;3.00;;
53010;SDS011;42803;55.762;38.084;2023-06-14T05:18:52;5.15;;;3.00;;
53010;SDS011;42803;55.762;38.084;2023-06-14T05:21:22;7.35;;;3.05;;
53010;SDS011;42803;55.762;38.084;2023-06-14T05:23:51;7.60;;;3.15;;
53010;SDS011;42803;55.762;38.084;2023-06-14T05:26:21;4.72;;;2.60;;
53010;SDS011;42803;55.762;38.084;2023-06-14T05:28:55;8.05;;;2.92;;
53010;SDS011;42803;55.762;38.084;2023-06-14T05:31:31;6.18;;;2.75;;
53010;SDS011;42803;55.762;38.084;2023-06-14T05:34:03;7.68;;;2.25;;
53010;SDS011;42803;55.762;38.084;2023-06-14T05:36:32;6.68;;;1.98;;
53010;SDS011;42803;55.762;38.084;2023-06-14T05:39:01;5.38;;;2.38;;
53010;SDS011;42803;55.762;38.084;2023-06-14T05:41:47;4.50;;;2.20;;
53010;SDS011;42803;55.762;38.084;2023-06-14T05:44:17;5.53;;;2.75;;
53010;SDS011;42803;55.762;38.084;2023-06-14T05:49:35;3.70;;;2.22;;
53010;SDS011;42803;55.762;38.084;2023-06-14T05:52:04;3.35;;;2.03;;
53010;SDS011;42803;55.762;38.084;2023-06-14T05:54:34;4.25;;;2.25;;
53010;SDS011;42803;55.762;38.084;2023-06-14T05:57:04;6.47;;;2.63;;
53010;SDS011;42803;55.762;38.084;2023-06-14T05:59:33;5.32;;;2.20;;
53010;SDS011;42803;55.762;38.084;2023-06-14T06:02:03;2.70;;;1.92;;
53010;SDS011;42803;55.762;38.084;2023-06-14T06:04:34;4.80;;;2.20;;
53010;SDS011;42803;55.762;38.084;2023-06-14T06:07:03;4.82;;;2.17;;
53010;SDS011;42803;55.762;38.084;2023-06-14T06:09:33;3.83;;;1.92;;
53010;SDS011;42803;55.762;38.084;2023-06-14T06:12:04;6.13;;;2.08;;
53010;SDS011;42803;55.762;38.084;2023-06-14T06:14:35;2.95;;;2.33;;
53010;SDS011;42803;55.762;38.084;2023-06-14T06:17:04;3.80;;;1.98;;
53010;SDS011;42803;55.762;38.084;2023-06-14T06:19:35;13.13;;;2.45;;
53010;SDS011;42803;55.762;38.084;2023-06-14T06:22:04;5.05;;;1.80;;
53010;SDS011;42803;55.762;38.084;2023-06-14T06:24:35;5.93;;;2.10;;
53010;SDS011;42803;55.762;38.084;2023-06-14T06:27:05;4.85;;;1.95;;
53010;SDS011;42803;55.762;38.084;2023-06-14T06:29:41;2.90;;;1.98;;
53010;SDS011;42803;55.762;38.084;2023-06-14T06:32:11;5.05;;;2.08;;
53010;SDS011;42803;55.762;38.084;2023-06-14T06:34:41;5.10;;;1.98;;
53010;SDS011;42803;55.762;38.084;2023-06-14T06:37:10;10.23;;;3.20;;
53010;SDS011;42803;55.762;38.084;2023-06-14T06:39:39;7.28;;;1.85;;
53010;SDS011;42803;55.762;38.084;2023-06-14T06:42:09;3.05;;;1.90;;
53010;SDS011;42803;55.762;38.084;2023-06-14T06:44:42;5.50;;;1.95;;
53010;SDS011;42803;55.762;38.084;2023-06-14T06:47:12;3.58;;;2.05;;
53010;SDS011;42803;55.762;38.084;2023-06-14T06:49:42;4.35;;;1.80;;
53010;SDS011;42803;55.762;38.084;2023-06-14T06:52:12;3.40;;;1.85;;
53010;SDS011;42803;55.762;38.084;2023-06-14T06:54:41;6.65;;;1.50;;
53010;SDS011;42803;55.762;38.084;2023-06-14T06:57:10;3.50;;;1.77;;
53010;SDS011;42803;55.762;38.084;2023-06-14T06:59:39;4.68;;;2.28;;
53010;SDS011;42803;55.762;38.084;2023-06-14T07:02:08;3.95;;;1.75;;
53010;SDS011;42803;55.762;38.084;2023-06-14T07:04:37;7.32;;;2.00;;
53010;SDS011;42803;55.762;38.084;2023-06-14T07:07:08;3.65;;;1.85;;
53010;SDS011;42803;55.762;38.084;2023-06-14T07:09:56;6.30;;;2.17;;
53010;SDS011;42803;55.762;38.084;2023-06-14T07:12:45;3.83;;;1.88;;
53010;SDS011;42803;55.762;38.084;2023-06-14T07:15:14;3.53;;;1.90;;
53010;SDS011;42803;55.762;38.084;2023-06-14T07:17:44;2.17;;;1.67;;
53010;SDS011;42803;55.762;38.084;2023-06-14T07:20:13;2.28;;;1.70;;
53010;SDS011;42803;55.762;38.084;2023-06-14T07:22:44;4.45;;;2.17;;
53010;SDS011;42803;55.762;38.084;2023-06-14T07:25:14;3.38;;;1.90;;
53010;SDS011;42803;55.762;38.084;2023-06-14T07:27:44;3.42;;;1.65;;
53010;SDS011;42803;55.762;38.084;2023-06-14T07:30:14;3.72;;;2.08;;
53010;SDS011;42803;55.762;38.084;2023-06-14T07:32:43;2.35;;;1.65;;
53010;SDS011;42803;55.762;38.084;2023-06-14T07:35:13;5.43;;;1.60;;
53010;SDS011;42803;55.762;38.084;2023-06-14T07:37:42;4.55;;;2.15;;
53010;SDS011;42803;55.762;38.084;2023-06-14T07:40:14;2.80;;;2.17;;
53010;SDS011;42803;55.762;38.084;2023-06-14T07:42:43;5.75;;;1.92;;
53010;SDS011;42803;55.762;38.084;2023-06-14T07:45:13;4.80;;;2.03;;
53010;SDS011;42803;55.762;38.084;2023-06-14T07:47:43;3.65;;;2.15;;
53010;SDS011;42803;55.762;38.084;2023-06-14T07:50:12;7.07;;;1.77;;
53010;SDS011;42803;55.762;38.084;2023-06-14T07:52:42;4.38;;;2.10;;
53010;SDS011;42803;55.762;38.084;2023-06-14T07:55:12;5.00;;;1.70;;
53010;SDS011;42803;55.762;38.084;2023-06-14T07:57:43;2.38;;;1.90;;
53010;SDS011;42803;55.762;38.084;2023-06-14T08:00:13;6.90;;;2.00;;
53010;SDS011;42803;55.762;38.084;2023-06-14T08:02:43;5.35;;;1.90;;
53010;SDS011;42803;55.762;38.084;2023-06-14T08:05:13;5.45;;;2.10;;
53010;SDS011;42803;55.762;38.084;2023-06-14T08:08:02;4.40;;;1.92;;
53010;SDS011;42803;55.762;38.084;2023-06-14T08:10:33;3.20;;;1.95;;
53010;SDS011;42803;55.762;38.084;2023-06-14T08:13:03;5.30;;;2.20;;
53010;SDS011;42803;55.762;38.084;2023-06-14T08:15:32;5.15;;;2.13;;
53010;SDS011;42803;55.762;38.084;2023-06-14T08:18:01;4.75;;;2.25;;
53010;SDS011;42803;55.762;38.084;2023-06-14T08:20:30;3.55;;;2.03;;
53010;SDS011;42803;55.762;38.084;2023-06-14T08:23:00;4.85;;;2.17;;
53010;SDS011;42803;55.762;38.084;2023-06-14T08:25:31;2.75;;;1.92;;
53010;SDS011;42803;55.762;38.084;2023-06-14T08:28:02;3.83;;;2.13;;
53010;SDS011;42803;55.762;38.084;2023-06-14T08:30:31;4.47;;;2.15;;
53010;SDS011;42803;55.762;38.084;2023-06-14T08:33:00;3.92;;;2.35;;
53010;SDS011;42803;55.762;38.084;2023-06-14T08:35:43;5.00;;;2.15;;
53010;SDS011;42803;55.762;38.084;2023-06-14T08:38:13;7.22;;;2.10;;
53010;SDS011;42803;55.762;38.084;2023-06-14T08:40:43;3.25;;;1.95;;
53010;SDS011;42803;55.762;38.084;2023-06-14T08:43:19;3.38;;;1.90;;
53010;SDS011;42803;55.762;38.084;2023-06-14T08:45:48;4.97;;;1.92;;
53010;SDS011;42803;55.762;38.084;2023-06-14T08:48:26;7.68;;;1.95;;
53010;SDS011;42803;55.762;38.084;2023-06-14T08:50:55;4.40;;;2.17;;
53010;SDS011;42803;55.762;38.084;2023-06-14T08:53:29;6.32;;;2.03;;
53010;SDS011;42803;55.762;38.084;2023-06-14T08:58:36;4.30;;;2.15;;
53010;SDS011;42803;55.762;38.084;2023-06-14T09:01:07;6.70;;;2.15;;
53010;SDS011;42803;55.762;38.084;2023-06-14T09:03:39;6.68;;;2.33;;
53010;SDS011;42803;55.762;38.084;2023-06-14T09:06:09;4.55;;;2.00;;
53010;SDS011;42803;55.762;38.084;2023-06-14T09:08:41;5.07;;;1.77;;
53010;SDS011;42803;55.762;38.084;2023-06-14T09:11:11;3.80;;;2.10;;
53010;SDS011;42803;55.762;38.084;2023-06-14T09:13:43;4.22;;;1.88;;
53010;SDS011;42803;55.762;38.084;2023-06-14T09:16:12;5.32;;;1.77;;
53010;SDS011;42803;55.762;38.084;2023-06-14T09:18:42;4.25;;;2.13;;
53010;SDS011;42803;55.762;38.084;2023-06-14T09:21:15;4.75;;;2.47;;
53010;SDS011;42803;55.762;38.084;2023-06-14T09:23:46;8.35;;;2.30;;
53010;SDS011;42803;55.762;38.084;2023-06-14T09:26:17;6.55;;;2.05;;
53010;SDS011;42803;55.762;38.084;2023-06-14T09:28:49;6.43;;;1.92;;
53010;SDS011;42803;55.762;38.084;2023-06-14T09:31:19;4.00;;;2.15;;
53010;SDS011;42803;55.762;38.084;2023-06-14T09:33:50;3.17;;;2.10;;
53010;SDS011;42803;55.762;38.084;2023-06-14T09:36:21;3.72;;;2.00;;
53010;SDS011;42803;55.762;38.084;2023-06-14T09:38:54;6.20;;;2.17;;
53010;SDS011;42803;55.762;38.084;2023-06-14T09:41:30;2.40;;;1.73;;
53010;SDS011;42803;55.762;38.084;2023-06-14T09:44:02;8.70;;;4.60;;
53010;SDS011;42803;55.762;38.084;2023-06-14T09:46:38;3.58;;;2.30;;
53010;SDS011;42803;55.762;38.084;2023-06-14T09:49:08;4.32;;;2.50;;
53010;SDS011;42803;55.762;38.084;2023-06-14T09:51:42;3.20;;;2.22;;
53010;SDS011;42803;55.762;38.084;2023-06-14T09:56:45;3.00;;;2.17;;
53010;SDS011;42803;55.762;38.084;2023-06-14T09:59:18;6.50;;;2.38;;
53010;SDS011;42803;55.762;38.084;2023-06-14T10:01:54;3.63;;;2.05;;
53010;SDS011;42803;55.762;38.084;2023-06-14T10:04:29;4.32;;;2.25;;
53010;SDS011;42803;55.762;38.084;2023-06-14T10:07:00;3.50;;;2.05;;
53010;SDS011;42803;55.762;38.084;2023-06-14T10:09:34;4.65;;;2.00;;
53010;SDS011;42803;55.762;38.084;2023-06-14T10:12:04;2.67;;;1.83;;
53010;SDS011;42803;55.762;38.084;2023-06-14T10:14:35;2.72;;;2.20;;
53010;SDS011;42803;55.762;38.084;2023-06-14T10:17:06;3.58;;;2.13;;
53010;SDS011;42803;55.762;38.084;2023-06-14T10:19:41;5.78;;;1.80;;
53010;SDS011;42803;55.762;38.084;2023-06-14T10:22:21;4.03;;;1.85;;
53010;SDS011;42803;55.762;38.084;2023-06-14T10:27:24;4.60;;;2.00;;
53010;SDS011;42803;55.762;38.084;2023-06-14T10:30:04;3.83;;;2.20;;
53010;SDS011;42803;55.762;38.084;2023-06-14T10:32:39;3.65;;;1.90;;
53010;SDS011;42803;55.762;38.084;2023-06-14T10:35:35;9.27;;;2.13;;
53010;SDS011;42803;55.762;38.084;2023-06-14T10:38:08;4.53;;;2.10;;
53010;SDS011;42803;55.762;38.084;2023-06-14T10:40:38;4.53;;;1.92;;
53010;SDS011;42803;55.762;38.084;2023-06-14T10:43:21;6.05;;;3.50;;
53010;SDS011;42803;55.762;38.084;2023-06-14T10:48:50;5.28;;;2.20;;
53010;SDS011;42803;55.762;38.084;2023-06-14T10:51:29;7.32;;;2.50;;
53010;SDS011;42803;55.762;38.084;2023-06-14T10:53:58;5.20;;;2.20;;
53010;SDS011;42803;55.762;38.084;2023-06-14T10:56:28;5.03;;;2.20;;
53010;SDS011;42803;55.762;38.084;2023-06-14T10:58:59;3.17;;;1.90;;
53010;SDS011;42803;55.762;38.084;2023-06-14T11:01:38;3.55;;;1.98;;
53010;SDS011;42803;55.762;38.084;2023-06-14T11:04:14;4.25;;;2.17;;
53010;SDS011;42803;55.762;38.084;2023-06-14T11:06:49;2.65;;;1.75;;
53010;SDS011;42803;55.762;38.084;2023-06-14T11:09:35;4.60;;;2.05;;
53010;SDS011;42803;55.762;38.084;2023-06-14T11:12:17;3.17;;;2.35;;
53010;SDS011;42803;55.762;38.084;2023-06-14T11:14:47;5.82;;;2.40;;
53010;SDS011;42803;55.762;38.084;2023-06-14T11:17:17;2.65;;;1.98;;
53010;SDS011;42803;55.762;38.084;2023-06-14T11:19:48;4.72;;;2.10;;
53010;SDS011;42803;55.762;38.084;2023-06-14T11:22:17;4.35;;;2.13;;
53010;SDS011;42803;55.762;38.084;2023-06-14T11:24:46;7.32;;;2.22;;
53010;SDS011;42803;55.762;38.084;2023-06-14T11:27:15;4.78;;;1.80;;
53010;SDS011;42803;55.762;38.084;2023-06-14T11:29:47;4.03;;;2.33;;
53010;SDS011;42803;55.762;38.084;2023-06-14T11:32:18;4.38;;;1.90;;
53010;SDS011;42803;55.762;38.084;2023-06-14T11:34:48;5.35;;;2.08;;
53010;SDS011;42803;55.762;38.084;2023-06-14T11:37:18;4.53;;;2.30;;
53010;SDS011;42803;55.762;38.084;2023-06-14T11:39:48;5.78;;;2.00;;
53010;SDS011;42803;55.762;38.084;2023-06-14T11:42:17;6.78;;;2.22;;
53010;SDS011;42803;55.762;38.084;2023-06-14T11:44:47;3.67;;;1.83;;
53010;SDS011;42803;55.762;38.084;2023-06-14T11:47:16;2.88;;;2.10;;
53010;SDS011;42803;55.762;38.084;2023-06-14T11:49:47;3.92;;;2.28;;
53010;SDS011;42803;55.762;38.084;2023-06-14T11:52:17;3.53;;;2.40;;
53010;SDS011;42803;55.762;38.084;2023-06-14T11:54:47;4.15;;;2.33;;
53010;SDS011;42803;55.762;38.084;2023-06-14T11:57:17;5.78;;;2.15;;
53010;SDS011;42803;55.762;38.084;2023-06-14T11:59:47;4.32;;;2.00;;
53010;SDS011;42803;55.762;38.084;2023-06-14T12:02:18;4.03;;;2.08;;
53010;SDS011;42803;55.762;38.084;2023-06-14T12:04:52;2.85;;;2.00;;
53010;SDS011;42803;55.762;38.084;2023-06-14T12:07:21;3.63;;;2.00;;
53010;SDS011;42803;55.762;38.084;2023-06-14T12:10:07;3.85;;;1.98;;
53010;SDS011;42803;55.762;38.084;2023-06-14T12:12:38;3.65;;;2.30;;
53010;SDS011;42803;55.762;38.084;2023-06-14T12:15:09;5.60;;;2.17;;
53010;SDS011;42803;55.762;38.084;2023-06-14T12:17:41;4.13;;;1.80;;
53010;SDS011;42803;55.762;38.084;2023-06-14T12:20:13;7.35;;;1.75;;
53010;SDS011;42803;55.762;38.084;2023-06-14T12:22:47;3.70;;;1.83;;
53010;SDS011;42803;55.762;38.084;2023-06-14T12:25:23;2.83;;;1.63;;
53010;SDS011;42803;55.762;38.084;2023-06-14T12:27:55;5.35;;;1.88;;
53010;SDS011;42803;55.762;38.084;2023-06-14T12:30:24;3.13;;;1.90;;
53010;SDS011;42803;55.762;38.084;2023-06-14T12:32:54;5.97;;;2.13;;
53010;SDS011;42803;55.762;38.084;2023-06-14T12:35:25;4.25;;;2.22;;
53010;SDS011;42803;55.762;38.084;2023-06-14T12:37:54;5.30;;;2.03;;
53010;SDS011;42803;55.762;38.084;2023-06-14T12:40:24;2.28;;;1.70;;
53010;SDS011;42803;55.762;38.084;2023-06-14T12:42:54;3.30;;;1.65;;
53010;SDS011;42803;55.762;38.084;2023-06-14T12:45:23;2.85;;;1.80;;
53010;SDS011;42803;55.762;38.084;2023-06-14T12:47:52;4.82;;;1.90;;
53010;SDS011;42803;55.762;38.084;2023-06-14T12:50:21;2.83;;;1.95;;
53010;SDS011;42803;55.762;38.084;2023-06-14T12:52:54;4.82;;;2.80;;
53010;SDS011;42803;55.762;38.084;2023-06-14T12:55:24;2.58;;;1.67;;
53010;SDS011;42803;55.762;38.084;2023-06-14T12:57:53;5.18;;;2.15;;
53010;SDS011;42803;55.762;38.084;2023-06-14T13:00:22;4.72;;;1.80;;
53010;SDS011;42803;55.762;38.084;2023-06-14T13:02:53;3.60;;;1.90;;
53010;SDS011;42803;55.762;38.084;2023-06-14T13:05:22;3.08;;;1.83;;
53010;SDS011;42803;55.762;38.084;2023-06-14T13:07:51;2.63;;;1.80;;
53010;SDS011;42803;55.762;38.084;2023-06-14T13:10:22;3.97;;;1.95;;
53010;SDS011;42803;55.762;38.084;2023-06-14T13:12:51;4.82;;;1.83;;
53010;SDS011;42803;55.762;38.084;2023-06-14T13:15:20;3.38;;;2.08;;
53010;SDS011;42803;55.762;38.084;2023-06-14T13:17:50;7.53;;;2.10;;
53010;SDS011;42803;55.762;38.084;2023-06-14T13:20:20;3.70;;;2.00;;
53010;SDS011;42803;55.762;38.084;2023-06-14T13:22:50;4.90;;;1.83;;
53010;SDS011;42803;55.762;38.084;2023-06-14T13:25:19;2.55;;;1.70;;
53010;SDS011;42803;55.762;38.084;2023-06-14T13:28:08;5.10;;;1.92;;
53010;SDS011;42803;55.762;38.084;2023-06-14T13:30:37;3.90;;;1.70;;
53010;SDS011;42803;55.762;38.084;2023-06-14T13:33:07;5.68;;;2.30;;
53010;SDS011;42803;55.762;38.084;2023-06-14T13:35:36;5.25;;;1.67;;
53010;SDS011;42803;55.762;38.084;2023-06-14T13:38:05;4.63;;;1.85;;
53010;SDS011;42803;55.762;38.084;2023-06-14T13:40:35;4.20;;;2.13;;
53010;SDS011;42803;55.762;38.084;2023-06-14T13:43:05;6.63;;;2.20;;
53010;SDS011;42803;55.762;38.084;2023-06-14T13:45:35;6.00;;;2.22;;
53010;SDS011;42803;55.762;38.084;2023-06-14T13:48:05;5.20;;;1.92;;
53010;SDS011;42803;55.762;38.084;2023-06-14T13:50:34;1.95;;;1.60;;
53010;SDS011;42803;55.762;38.084;2023-06-14T13:53:03;2.65;;;1.80;;
53010;SDS011;42803;55.762;38.084;2023-06-14T13:55:33;3.60;;;1.95;;
53010;SDS011;42803;55.762;38.084;2023-06-14T13:58:02;4.93;;;2.38;;
53010;SDS011;42803;55.762;38.084;2023-06-14T14:00:32;2.58;;;1.77;;
53010;SDS011;42803;55.762;38.084;2023-06-14T14:03:03;5.53;;;1.90;;
53010;SDS011;42803;55.762;38.084;2023-06-14T14:05:50;3.03;;;1.80;;
53010;SDS011;42803;55.762;38.084;2023-06-14T14:08:20;2.08;;;1.58;;
53010;SDS011;42803;55.762;38.084;2023-06-14T14:10:49;6.30;;;2.17;;
53010;SDS011;42803;55.762;38.084;2023-06-14T14:13:36;3.45;;;1.77;;
53010;SDS011;42803;55.762;38.084;2023-06-14T14:16:25;4.45;;;2.05;;
53010;SDS011;42803;55.762;38.084;2023-06-14T14:18:55;2.70;;;1.85;;
53010;SDS011;42803;55.762;38.084;2023-06-14T14:21:25;2.70;;;1.80;;
53010;SDS011;42803;55.762;38.084;2023-06-14T14:23:54;2.38;;;1.92;;
53010;SDS011;42803;55.762;38.084;2023-06-14T14:26:23;3.50;;;2.03;;
53010;SDS011;42803;55.762;38.084;2023-06-14T14:28:53;3.55;;;2.22;;
53010;SDS011;42803;55.762;38.084;2023-06-14T14:31:22;2.70;;;1.70;;
53010;SDS011;42803;55.762;38.084;2023-06-14T14:33:52;4.13;;;1.80;;
53010;SDS011;42803;55.762;38.084;2023-06-14T14:36:23;7.30;;;2.35;;
53010;SDS011;42803;55.762;38.084;2023-06-14T14:38:52;5.00;;;2.03;;
53010;SDS011;42803;55.762;38.084;2023-06-14T14:41:21;3.10;;;1.73;;
53010;SDS011;42803;55.762;38.084;2023-06-14T14:43:51;2.83;;;1.45;;
53010;SDS011;42803;55.762;38.084;2023-06-14T14:46:20;6.93;;;1.75;;
53010;SDS011;42803;55.762;38.084;2023-06-14T14:48:49;3.13;;;1.73;;
53010;SDS011;42803;55.762;38.084;2023-06-14T14:51:18;3.20;;;2.00;;
53010;SDS011;42803;55.762;38.084;2023-06-14T14:53:49;2.38;;;1.80;;
53010;SDS011;42803;55.762;38.084;2023-06-14T14:56:22;2.63;;;1.75;;
53010;SDS011;42803;55.762;38.084;2023-06-14T14:58:51;3.03;;;2.20;;
53010;SDS011;42803;55.762;38.084;2023-06-14T15:01:21;4.88;;;2.00;;
53010;SDS011;42803;55.762;38.084;2023-06-14T15:03:50;4.45;;;1.85;;
53010;SDS011;42803;55.762;38.084;2023-06-14T15:06:25;3.00;;;1.70;;
53010;SDS011;42803;55.762;38.084;2023-06-14T15:09:13;2.60;;;1.88;;
53010;SDS011;42803;55.762;38.084;2023-06-14T15:11:42;3.08;;;1.60;;